Time;durP1;ratioP1;P1;durP2;ratioP2;P2;SDS_P1;SDS_P2;PMS_P1;PMS_P2;Temp;Humidity;BMP_temperature;BMP_pressure;BME280_temperature;BME280_humidity;BME280_pressure;Samples;Min_cycle;Max_cycle;Signal;HPM_P1;HPM_P2
2021/07/28 00:00:50;;;;;;;11.75;8.52;;;16.30;99.90;;;;;;5128867;27;20047;-69
2021/07/28 00:03:16;;;;;;;11.13;7.93;;;16.30;99.90;;;;;;5133026;27;20043;-70
2021/07/28 00:05:41;;;;;;;14.88;9.05;;;16.30;99.90;;;;;;5140263;27;20107;-70
2021/07/28 00:08:07;;;;;;;13.82;8.85;;;16.20;99.90;;;;;;5136292;27;20119;-70
2021/07/28 00:10:34;;;;;;;14.27;10.13;;;16.20;99.90;;;;;;5136664;27;20072;-70
2021/07/28 00:12:59;;;;;;;15.57;10.38;;;16.20;99.90;;;;;;5136755;27;20035;-70
2021/07/28 00:15:25;;;;;;;14.85;9.80;;;16.20;99.90;;;;;;5142434;27;20043;-70
2021/07/28 00:17:54;;;;;;;13.20;10.48;;;16.10;99.90;;;;;;5135508;27;20046;-71
2021/07/28 00:30:22;;;;;;;14.88;11.82;;;16.00;99.90;;;;;;5034624;28;20047;-70
2021/07/28 00:32:48;;;;;;;17.00;11.50;;;16.00;99.90;;;;;;5041276;28;20072;-70
2021/07/28 00:35:14;;;;;;;18.88;10.65;;;16.00;99.90;;;;;;5042171;28;20042;-70
2021/07/28 00:37:40;;;;;;;18.35;10.63;;;15.90;99.90;;;;;;5032737;28;20473;-70
2021/07/28 00:40:06;;;;;;;14.88;11.05;;;16.00;99.90;;;;;;5041368;28;20063;-70
2021/07/28 00:42:32;;;;;;;17.98;11.90;;;16.00;99.90;;;;;;5038238;28;20105;-71
2021/07/28 00:44:58;;;;;;;14.18;10.93;;;16.00;99.90;;;;;;5040725;28;20084;-71
2021/07/28 00:47:24;;;;;;;17.13;11.70;;;15.90;99.90;;;;;;5040150;28;20080;-71
2021/07/28 00:49:50;;;;;;;15.30;11.32;;;15.90;99.90;;;;;;5041519;28;20091;-69
2021/07/28 00:52:16;;;;;;;16.08;11.95;;;15.90;99.90;;;;;;5039594;28;20044;-71
2021/07/28 00:54:42;;;;;;;15.55;11.70;;;15.80;99.90;;;;;;5041664;28;20033;-71
2021/07/28 00:57:08;;;;;;;19.00;12.10;;;15.90;99.90;;;;;;5030216;28;20052;-71
2021/07/28 00:59:35;;;;;;;16.80;12.00;;;15.90;99.90;;;;;;5041707;28;20049;-70
2021/07/28 01:02:01;;;;;;;17.83;13.02;;;15.90;99.90;;;;;;5037302;28;20049;-71
2021/07/28 01:04:26;;;;;;;21.98;11.82;;;15.90;99.90;;;;;;5041525;28;20223;-71
2021/07/28 01:06:52;;;;;;;22.50;12.90;;;15.90;99.90;;;;;;5036834;28;20188;-70
2021/07/28 01:09:19;;;;;;;17.65;13.40;;;15.80;99.90;;;;;;5042179;28;20492;-71
2021/07/28 01:11:44;;;;;;;19.08;13.25;;;15.80;99.90;;;;;;5037041;28;20065;-70
2021/07/28 01:14:10;;;;;;;19.95;13.60;;;15.80;99.90;;;;;;5041512;28;20059;-71
2021/07/28 01:16:40;;;;;;;22.20;14.05;;;15.80;99.90;;;;;;5038418;28;20105;-70
2021/07/28 01:19:15;;;;;;;20.55;13.32;;;15.70;99.90;;;;;;5042032;28;20049;-71
2021/07/28 01:21:44;;;;;;;18.80;13.73;;;15.70;99.90;;;;;;5038500;28;20046;-70
2021/07/28 01:24:12;;;;;;;20.05;13.20;;;15.70;99.90;;;;;;5040546;28;20061;-71
2021/07/28 01:26:38;;;;;;;22.92;15.43;;;15.70;99.90;;;;;;5035533;28;20470;-71
2021/07/28 01:29:05;;;;;;;19.73;14.07;;;15.60;99.90;;;;;;5038323;28;20139;-70
2021/07/28 01:31:40;;;;;;;23.55;14.90;;;15.60;99.90;;;;;;5040188;28;20048;-70
2021/07/28 01:34:10;;;;;;;19.40;14.55;;;15.60;99.90;;;;;;5041022;28;20068;-71
2021/07/28 01:36:36;;;;;;;24.88;16.52;;;15.60;99.90;;;;;;5040866;28;20100;-71
2021/07/28 01:39:04;;;;;;;21.55;15.50;;;15.60;99.90;;;;;;5036506;28;20108;-71
2021/07/28 01:41:32;;;;;;;26.15;17.40;;;15.50;99.90;;;;;;5042059;28;20065;-71
2021/07/28 01:43:57;;;;;;;26.10;17.67;;;15.50;99.90;;;;;;5032133;28;20133;-71
2021/07/28 01:46:23;;;;;;;25.50;17.55;;;15.60;99.90;;;;;;5042548;28;20033;-71
2021/07/28 01:48:49;;;;;;;29.73;18.70;;;15.60;99.90;;;;;;5024374;28;20046;-71
2021/07/28 01:51:15;;;;;;;27.63;18.02;;;15.50;99.90;;;;;;5040860;28;20045;-70
2021/07/28 01:53:43;;;;;;;29.17;17.38;;;15.50;99.90;;;;;;5040839;28;20057;-71
2021/07/28 01:56:09;;;;;;;36.40;21.73;;;15.50;99.90;;;;;;5040046;28;20041;-70
2021/07/28 01:58:38;;;;;;;26.25;17.65;;;15.50;99.90;;;;;;5041009;28;20049;-71
2021/07/28 02:01:04;;;;;;;29.25;19.35;;;15.60;99.90;;;;;;5039859;28;20549;-71
2021/07/28 02:03:30;;;;;;;28.15;20.15;;;15.60;99.90;;;;;;5037177;28;20045;-72
2021/07/28 02:05:55;;;;;;;30.33;20.17;;;15.70;99.90;;;;;;5029337;28;20048;-71
2021/07/28 02:08:21;;;;;;;29.65;20.23;;;15.70;99.90;;;;;;5038703;28;20034;-71
2021/07/28 02:10:49;;;;;;;34.58;21.48;;;15.70;99.90;;;;;;5031042;28;20073;-71
2021/07/28 02:13:19;;;;;;;35.78;22.17;;;15.70;99.90;;;;;;5032849;28;20048;-70
2021/07/28 02:15:46;;;;;;;33.78;22.30;;;15.80;99.90;;;;;;5041622;28;20131;-71
2021/07/28 02:18:12;;;;;;;32.53;21.80;;;15.80;99.90;;;;;;5041922;28;20052;-71
2021/07/28 02:20:38;;;;;;;32.60;18.40;;;15.80;99.90;;;;;;5034424;28;20097;-71
2021/07/28 02:23:04;;;;;;;29.60;21.13;;;15.80;99.90;;;;;;5041820;28;20046;-71
2021/07/28 02:25:31;;;;;;;30.52;20.52;;;15.80;99.90;;;;;;5034364;28;20097;-71
2021/07/28 02:27:57;;;;;;;35.25;21.83;;;15.80;99.90;;;;;;5020711;28;20068;-71
2021/07/28 02:30:23;;;;;;;37.42;22.23;;;15.80;99.90;;;;;;5017219;28;20125;-71
2021/07/28 02:32:49;;;;;;;36.75;21.98;;;15.80;99.90;;;;;;5018359;28;20053;-71
2021/07/28 02:35:15;;;;;;;35.08;20.95;;;15.80;99.90;;;;;;5018579;28;20039;-70
2021/07/28 02:37:43;;;;;;;31.88;21.05;;;15.80;99.90;;;;;;5015243;28;20042;-71
2021/07/28 02:40:19;;;;;;;31.40;20.73;;;15.80;99.90;;;;;;5011673;28;20094;-71
2021/07/28 02:42:46;;;;;;;40.70;23.42;;;15.80;99.90;;;;;;5018692;28;20098;-70
2021/07/28 02:45:11;;;;;;;36.58;23.10;;;15.70;99.90;;;;;;5024777;28;20054;-70
2021/07/28 02:47:38;;;;;;;32.58;22.27;;;15.80;99.90;;;;;;5022608;28;20042;-71
2021/07/28 02:50:05;;;;;;;37.20;22.90;;;15.70;99.90;;;;;;5021520;28;20424;-71
2021/07/28 02:52:31;;;;;;;35.25;22.88;;;15.70;99.90;;;;;;5015329;28;20046;-71
2021/07/28 02:54:58;;;;;;;36.90;23.10;;;15.70;99.90;;;;;;5022960;28;20523;-71
2021/07/28 02:57:24;;;;;;;35.67;22.25;;;15.70;99.90;;;;;;5030598;28;20052;-71
2021/07/28 02:59:49;;;;;;;34.45;19.98;;;15.70;99.90;;;;;;5024392;28;20045;-71
2021/07/28 03:02:15;;;;;;;34.00;23.15;;;15.70;99.90;;;;;;5022294;28;20559;-71
2021/07/28 03:04:41;;;;;;;34.88;22.80;;;15.70;99.90;;;;;;5028137;28;20042;-71
2021/07/28 03:07:07;;;;;;;40.40;23.45;;;15.70;99.90;;;;;;5017191;28;20069;-71
2021/07/28 03:09:32;;;;;;;36.70;24.65;;;15.70;99.90;;;;;;5023255;28;20105;-70
2021/07/28 03:11:58;;;;;;;36.35;23.08;;;15.70;99.90;;;;;;5023540;28;20049;-70
2021/07/28 03:14:25;;;;;;;34.30;23.40;;;15.70;99.90;;;;;;5027100;28;20057;-71
2021/07/28 03:16:51;;;;;;;36.30;24.90;;;15.70;99.90;;;;;;5023267;28;20313;-71
2021/07/28 03:19:17;;;;;;;34.58;22.35;;;15.70;99.90;;;;;;5029531;28;20069;-71
2021/07/28 03:21:43;;;;;;;33.47;23.50;;;15.70;99.90;;;;;;5027890;28;20042;-71
2021/07/28 03:24:09;;;;;;;35.33;24.52;;;15.70;99.90;;;;;;5026476;28;20076;-71
2021/07/28 03:26:35;;;;;;;34.65;23.38;;;15.70;99.90;;;;;;5043421;28;20053;-71
2021/07/28 03:29:00;;;;;;;41.63;23.88;;;15.70;99.90;;;;;;5050117;28;20036;-71
2021/07/28 03:31:28;;;;;;;35.08;23.73;;;15.70;99.90;;;;;;5059317;28;20045;-71
2021/07/28 03:33:54;;;;;;;31.58;21.70;;;15.60;99.90;;;;;;5048296;28;20524;-71
2021/07/28 03:36:20;;;;;;;38.08;24.30;;;15.60;99.90;;;;;;5040854;28;20045;-71
2021/07/28 03:38:46;;;;;;;36.15;23.10;;;15.50;99.90;;;;;;5034598;28;20043;-71
2021/07/28 03:41:11;;;;;;;36.72;23.42;;;15.50;99.90;;;;;;5039270;28;20052;-71
2021/07/28 03:43:37;;;;;;;38.45;24.23;;;15.50;99.90;;;;;;5043307;28;20037;-71
2021/07/28 03:46:05;;;;;;;37.50;23.10;;;15.40;99.90;;;;;;5040039;28;20046;-71
2021/07/28 03:48:31;;;;;;;35.95;23.05;;;15.30;99.90;;;;;;5036118;28;20052;-70
2021/07/28 03:50:58;;;;;;;39.75;22.85;;;15.30;99.90;;;;;;5040517;28;20049;-69
2021/07/28 03:53:24;;;;;;;42.23;23.07;;;15.20;99.90;;;;;;5035363;28;20041;-70
2021/07/28 03:55:50;;;;;;;44.03;26.15;;;15.20;99.90;;;;;;5039126;28;20049;-71
2021/07/28 03:58:16;;;;;;;45.13;24.27;;;15.20;99.90;;;;;;5026593;28;20054;-71
2021/07/28 04:00:42;;;;;;;40.70;24.80;;;15.30;99.90;;;;;;5038403;28;20845;-71
2021/07/28 04:03:07;;;;;;;38.95;24.00;;;15.20;99.90;;;;;;5032464;28;20451;-71
2021/07/28 04:05:33;;;;;;;47.83;24.58;;;15.20;99.90;;;;;;5039062;28;20096;-71
2021/07/28 04:07:59;;;;;;;41.85;24.80;;;15.20;99.90;;;;;;5043594;28;20105;-71
2021/07/28 04:10:25;;;;;;;37.38;25.58;;;15.20;99.90;;;;;;5038505;28;20061;-71
2021/07/28 04:12:51;;;;;;;37.38;24.63;;;15.20;99.90;;;;;;5042988;28;20092;-71
2021/07/28 04:15:17;;;;;;;39.72;23.17;;;15.30;99.90;;;;;;5038116;28;20045;-71
2021/07/28 04:17:44;;;;;;;35.83;24.33;;;15.30;99.90;;;;;;5040717;28;20048;-71
2021/07/28 04:20:10;;;;;;;39.88;23.48;;;15.30;99.90;;;;;;5034901;28;20041;-71
2021/07/28 04:22:35;;;;;;;36.55;23.10;;;15.30;99.90;;;;;;5040269;28;20097;-71
2021/07/28 04:25:04;;;;;;;40.10;23.52;;;15.40;99.90;;;;;;5036791;28;20053;-71
2021/07/28 04:27:31;;;;;;;38.40;23.75;;;15.40;99.90;;;;;;5038413;28;20069;-71
2021/07/28 04:29:57;;;;;;;38.63;24.35;;;15.40;99.90;;;;;;5037559;28;20046;-71
2021/07/28 04:32:23;;;;;;;38.38;23.63;;;15.50;99.90;;;;;;5036136;28;20052;-70
2021/07/28 04:34:49;;;;;;;39.90;23.35;;;15.50;99.90;;;;;;5039538;28;20042;-71
2021/07/28 04:37:16;;;;;;;35.25;22.50;;;15.50;99.90;;;;;;5035223;28;20056;-71
2021/07/28 04:39:42;;;;;;;37.00;24.55;;;15.40;99.90;;;;;;5040480;28;20061;-71
2021/07/28 04:42:08;;;;;;;42.42;23.55;;;15.50;99.90;;;;;;5027266;28;20050;-71
2021/07/28 04:44:34;;;;;;;35.13;22.83;;;15.40;99.90;;;;;;5040832;28;20045;-71
2021/07/28 04:47:00;;;;;;;36.45;24.05;;;15.40;99.90;;;;;;5035499;28;20041;-71
2021/07/28 04:49:26;;;;;;;42.13;23.88;;;15.40;99.90;;;;;;5040003;28;20060;-71
2021/07/28 04:51:52;;;;;;;32.78;21.52;;;15.40;99.90;;;;;;5027373;28;20046;-71
2021/07/28 04:54:18;;;;;;;43.70;24.83;;;15.40;99.90;;;;;;5042664;28;20067;-71
2021/07/28 04:56:43;;;;;;;38.80;24.58;;;15.40;99.90;;;;;;5032149;28;20052;-71
2021/07/28 04:59:09;;;;;;;39.13;22.95;;;15.40;99.90;;;;;;5038688;28;20069;-70
2021/07/28 05:01:36;;;;;;;37.72;24.15;;;15.40;99.90;;;;;;5035740;28;20448;-71
2021/07/28 05:04:03;;;;;;;36.60;23.77;;;15.50;99.90;;;;;;5035023;28;20041;-70
2021/07/28 05:06:29;;;;;;;38.95;23.30;;;15.50;99.90;;;;;;5025983;28;20046;-70
2021/07/28 05:08:54;;;;;;;36.42;22.38;;;15.60;99.90;;;;;;5038326;28;20045;-70
2021/07/28 05:11:22;;;;;;;31.58;21.58;;;15.60;99.90;;;;;;5031607;28;20052;-70
2021/07/28 05:13:48;;;;;;;38.72;21.90;;;15.70;99.90;;;;;;5038268;28;20037;-70
2021/07/28 05:16:14;;;;;;;35.40;22.33;;;15.80;99.90;;;;;;5040651;28;20045;-70
2021/07/28 05:18:39;;;;;;;37.45;21.48;;;15.80;99.90;;;;;;5037689;28;20038;-70
2021/07/28 05:21:05;;;;;;;33.55;22.05;;;15.80;99.90;;;;;;5041343;28;20037;-71
2021/07/28 05:23:31;;;;;;;36.95;22.08;;;15.80;99.90;;;;;;5034912;28;20128;-71
2021/07/28 05:25:57;;;;;;;36.13;22.17;;;15.90;99.90;;;;;;5039805;28;20050;-71
2021/07/28 05:28:22;;;;;;;31.65;21.20;;;15.90;99.90;;;;;;5038024;28;20049;-71
2021/07/28 05:30:48;;;;;;;33.97;20.50;;;16.00;99.90;;;;;;5040357;28;20045;-71
2021/07/28 05:33:14;;;;;;;30.30;20.20;;;16.00;99.90;;;;;;5039074;28;20046;-71
2021/07/28 05:35:45;;;;;;;33.38;20.42;;;16.00;99.90;;;;;;5036592;28;20053;-71
2021/07/28 05:38:11;;;;;;;31.42;21.00;;;16.00;99.90;;;;;;5039893;28;20509;-71
2021/07/28 05:40:37;;;;;;;35.97;22.38;;;16.10;99.90;;;;;;5035545;28;20105;-71
2021/07/28 05:43:02;;;;;;;32.75;21.13;;;16.10;99.90;;;;;;5041809;28;20135;-71
2021/07/28 05:45:28;;;;;;;37.80;21.25;;;16.10;99.90;;;;;;5043352;28;20042;-71
2021/07/28 05:47:55;;;;;;;30.58;20.35;;;16.10;99.90;;;;;;5044131;28;20041;-71
2021/07/28 05:50:20;;;;;;;31.52;20.13;;;16.10;99.90;;;;;;5037767;28;20041;-71
2021/07/28 05:52:47;;;;;;;35.15;20.83;;;16.10;99.90;;;;;;5043457;28;20045;-71
2021/07/28 05:55:13;;;;;;;30.73;19.25;;;16.20;99.90;;;;;;5037087;28;20045;-71
2021/07/28 05:57:40;;;;;;;31.55;19.52;;;16.20;99.90;;;;;;5043932;28;20042;-70
2021/07/28 06:00:06;;;;;;;25.60;18.40;;;16.30;99.90;;;;;;5040233;28;20061;-71
2021/07/28 06:02:32;;;;;;;29.90;19.88;;;16.50;99.90;;;;;;5041472;28;20116;-71
2021/07/28 06:04:58;;;;;;;27.75;19.48;;;16.50;99.90;;;;;;5037019;28;20060;-70
2021/07/28 06:07:24;;;;;;;25.00;18.35;;;16.60;99.90;;;;;;5044747;28;20045;-70
2021/07/28 06:09:51;;;;;;;24.52;17.48;;;16.70;99.90;;;;;;5041055;28;20045;-70
2021/07/28 06:12:17;;;;;;;25.25;17.75;;;16.80;99.90;;;;;;5038142;28;20582;-70
2021/07/28 06:14:44;;;;;;;27.75;17.73;;;16.80;99.90;;;;;;5039084;28;20092;-70
2021/07/28 06:17:11;;;;;;;29.80;18.63;;;17.00;99.90;;;;;;5040629;28;20049;-70
2021/07/28 06:19:37;;;;;;;23.67;17.42;;;17.10;99.90;;;;;;5051568;28;20063;-70
2021/07/28 06:22:03;;;;;;;24.00;17.85;;;17.20;99.90;;;;;;5046132;28;20060;-70
2021/07/28 06:24:29;;;;;;;24.65;18.13;;;17.20;99.90;;;;;;5037425;28;20041;-70
2021/07/28 06:26:55;;;;;;;29.48;19.35;;;17.20;99.90;;;;;;5051920;28;20069;-69
2021/07/28 06:29:21;;;;;;;24.50;18.35;;;17.20;99.90;;;;;;5045392;28;20048;-69
2021/07/28 06:31:47;;;;;;;23.75;18.00;;;17.20;99.90;;;;;;5039601;28;20412;-69
2021/07/28 06:34:13;;;;;;;26.40;19.10;;;17.20;99.90;;;;;;5044117;28;20044;-70
2021/07/28 06:36:39;;;;;;;28.08;19.60;;;17.30;99.90;;;;;;5040780;28;20073;-70
2021/07/28 06:39:05;;;;;;;26.40;18.52;;;17.20;99.90;;;;;;5038625;28;20046;-70
2021/07/28 06:41:31;;;;;;;24.95;18.35;;;17.20;99.90;;;;;;5034079;28;20104;-70
2021/07/28 06:43:57;;;;;;;27.73;19.80;;;17.20;99.90;;;;;;5035147;28;20049;-70
2021/07/28 06:46:22;;;;;;;23.90;18.13;;;17.20;99.90;;;;;;5045073;28;20219;-70
2021/07/28 06:48:48;;;;;;;29.15;20.23;;;17.30;99.90;;;;;;5034780;28;20046;-69
2021/07/28 06:51:14;;;;;;;25.88;20.40;;;17.30;99.90;;;;;;5041481;28;20068;-70
2021/07/28 06:53:40;;;;;;;19.83;16.42;;;17.40;99.90;;;;;;5043417;28;20050;-69
2021/07/28 06:56:06;;;;;;;24.98;20.25;;;17.30;99.90;;;;;;5043461;28;20107;-69
2021/07/28 06:58:32;;;;;;;27.55;20.35;;;17.30;99.90;;;;;;5038729;28;20045;-69
2021/07/28 07:00:59;;;;;;;28.95;20.77;;;17.40;99.90;;;;;;5046925;28;20064;-69
2021/07/28 07:03:25;;;;;;;28.40;20.85;;;17.50;99.90;;;;;;5038026;28;20052;-69
2021/07/28 07:05:51;;;;;;;24.85;19.48;;;17.50;99.90;;;;;;5043011;28;20041;-69
2021/07/28 07:08:17;;;;;;;26.33;20.85;;;17.50;99.90;;;;;;5042840;28;20065;-69
2021/07/28 07:10:43;;;;;;;29.98;20.67;;;17.60;99.90;;;;;;5048213;28;20152;-69
2021/07/28 07:13:09;;;;;;;25.88;20.23;;;17.60;99.90;;;;;;5039336;28;20127;-69
2021/07/28 07:15:34;;;;;;;22.55;18.38;;;17.70;99.90;;;;;;5044126;28;20075;-69
2021/07/28 07:18:00;;;;;;;22.67;18.58;;;17.80;99.90;;;;;;5048261;28;20047;-69
2021/07/28 07:20:26;;;;;;;26.33;18.92;;;17.80;99.90;;;;;;5038172;28;20047;-69
2021/07/28 07:22:52;;;;;;;28.17;19.13;;;17.90;99.90;;;;;;5043818;28;20042;-68
2021/07/28 07:25:18;;;;;;;20.42;17.15;;;17.90;99.90;;;;;;5041473;28;20100;-68
2021/07/28 07:27:45;;;;;;;21.55;17.27;;;18.20;99.90;;;;;;5043864;28;20053;-68
2021/07/28 07:30:11;;;;;;;17.48;15.68;;;18.30;99.90;;;;;;5040806;28;20040;-68
2021/07/28 07:32:36;;;;;;;18.83;15.00;;;18.60;99.90;;;;;;5043813;28;20041;-68
2021/07/28 07:35:03;;;;;;;20.95;15.40;;;18.80;99.90;;;;;;5043037;28;20056;-68
2021/07/28 07:37:28;;;;;;;19.48;14.55;;;18.80;99.90;;;;;;5047517;28;20444;-68
2021/07/28 07:39:55;;;;;;;17.60;14.45;;;18.80;99.90;;;;;;5042957;28;20046;-69
2021/07/28 07:42:20;;;;;;;17.92;15.13;;;18.60;99.90;;;;;;5043139;28;20075;-68
2021/07/28 07:44:48;;;;;;;19.23;13.60;;;18.50;99.90;;;;;;5041932;28;20041;-68
2021/07/28 07:47:14;;;;;;;18.67;14.07;;;18.70;99.90;;;;;;5042723;28;20064;-68
2021/07/28 07:49:40;;;;;;;16.38;14.65;;;18.70;99.90;;;;;;5040318;28;20041;-69
2021/07/28 07:52:06;;;;;;;19.50;15.00;;;18.80;99.90;;;;;;5045497;28;20044;-67
2021/07/28 07:54:33;;;;;;;19.00;13.63;;;18.70;99.90;;;;;;5043357;28;20072;-68
2021/07/28 07:56:59;;;;;;;20.67;15.40;;;18.70;99.90;;;;;;5053137;28;20053;-67
2021/07/28 07:59:25;;;;;;;17.15;14.30;;;18.90;99.90;;;;;;5042612;28;20321;-67
2021/07/28 08:01:51;;;;;;;17.83;14.60;;;19.00;99.90;;;;;;5039684;28;20053;-68
2021/07/28 08:04:17;;;;;;;17.75;14.45;;;19.10;99.90;;;;;;5045280;28;20045;-68
2021/07/28 08:06:44;;;;;;;18.13;14.00;;;19.10;99.90;;;;;;5041633;28;20043;-68
2021/07/28 08:09:12;;;;;;;20.08;12.68;;;19.30;99.90;;;;;;5046722;28;20056;-68
2021/07/28 08:11:38;;;;;;;17.75;13.82;;;19.40;99.90;;;;;;5038652;28;20065;-68
2021/07/28 08:14:03;;;;;;;16.45;12.10;;;19.40;99.90;;;;;;5042883;28;20049;-68
2021/07/28 08:16:29;;;;;;;13.77;10.70;;;19.30;99.90;;;;;;5034470;28;20136;-68
2021/07/28 08:18:56;;;;;;;14.88;12.20;;;19.40;99.90;;;;;;5035773;28;20045;-68
2021/07/28 08:21:21;;;;;;;16.15;11.93;;;19.60;99.90;;;;;;5034736;28;20037;-68
2021/07/28 08:23:48;;;;;;;14.32;11.98;;;19.70;99.90;;;;;;5043524;28;20578;-67
2021/07/28 08:26:15;;;;;;;14.60;10.38;;;20.00;99.90;;;;;;5042766;28;20048;-67
2021/07/28 08:28:42;;;;;;;15.65;11.85;;;20.20;99.90;;;;;;5037372;28;20527;-68
2021/07/28 08:31:08;;;;;;;;;;;20.30;99.90;;;;;;5042555;28;20041;-67
2021/07/28 08:33:34;;;;;;;14.90;10.90;;;20.20;99.90;;;;;;5044711;28;20466;-67
2021/07/28 08:36:03;;;;;;;13.57;10.30;;;20.00;99.90;;;;;;5042853;28;20061;-67
2021/07/28 08:38:29;;;;;;;12.52;10.48;;;19.90;99.90;;;;;;5042416;28;20049;-67
2021/07/28 08:41:01;;;;;;;15.63;10.10;;;19.80;99.90;;;;;;5042603;28;20067;-67
2021/07/28 08:43:29;;;;;;;11.25;8.82;;;19.90;99.90;;;;;;5043910;28;20312;-67
2021/07/28 08:45:58;;;;;;;12.35;9.00;;;19.90;99.90;;;;;;5041826;28;20049;-67
2021/07/28 08:48:24;;;;;;;10.75;9.30;;;19.90;99.90;;;;;;5042226;28;20045;-67
2021/07/28 08:50:53;;;;;;;10.32;9.25;;;19.80;99.90;;;;;;5041495;28;20044;-67
2021/07/28 08:53:19;;;;;;;12.00;9.95;;;19.80;99.90;;;;;;5040009;28;20632;-67
2021/07/28 08:55:45;;;;;;;11.68;9.07;;;19.90;99.90;;;;;;5043743;28;20383;-67
2021/07/28 08:58:17;;;;;;;11.18;8.13;;;19.80;99.90;;;;;;5041560;28;20041;-67
2021/07/28 09:00:46;;;;;;;10.85;9.05;;;19.60;99.90;;;;;;5039949;28;20050;-67
2021/07/28 09:03:13;;;;;;;12.48;8.93;;;19.70;99.90;;;;;;5043633;28;20034;-67
2021/07/28 09:05:43;;;;;;;12.98;10.65;;;19.90;99.90;;;;;;5040880;28;20041;-67
2021/07/28 09:08:30;;;;;;;12.10;9.32;;;20.00;99.90;;;;;;5038344;28;20034;-67
2021/07/28 09:11:00;;;;;;;12.52;9.55;;;20.20;99.90;;;;;;5042653;28;20045;-67
2021/07/28 09:13:30;;;;;;;12.57;9.30;;;20.40;99.90;;;;;;5041747;28;20451;-68
2021/07/28 09:15:59;;;;;;;10.23;8.60;;;20.40;99.90;;;;;;5042279;28;20049;-67
2021/07/28 09:18:35;;;;;;;10.00;8.23;;;20.40;99.90;;;;;;5037662;28;20073;-67
2021/07/28 09:21:04;;;;;;;9.10;7.60;;;20.60;99.90;;;;;;5044103;28;20045;-67
2021/07/28 09:23:35;;;;;;;8.82;7.93;;;20.60;99.90;;;;;;5037918;28;20048;-67
2021/07/28 09:26:05;;;;;;;12.18;8.45;;;20.60;99.90;;;;;;5033426;28;20037;-67
2021/07/28 09:28:31;;;;;;;10.27;7.95;;;20.60;99.90;;;;;;5038290;28;20037;-67
2021/07/28 09:30:58;;;;;;;12.07;8.65;;;20.90;99.90;;;;;;5041767;28;20094;-67
2021/07/28 09:33:24;;;;;;;13.90;7.93;;;21.10;99.90;;;;;;5044847;28;20046;-67
2021/07/28 09:35:49;;;;;;;14.45;8.13;;;21.00;99.90;;;;;;5042544;28;20119;-67
2021/07/28 09:38:31;;;;;;;11.43;8.15;;;21.20;99.90;;;;;;5037147;28;20041;-67
2021/07/28 09:41:21;;;;;;;9.10;6.97;;;21.10;99.90;;;;;;5044651;28;20046;-67
2021/07/28 09:43:50;;;;;;;9.07;6.55;;;21.10;99.90;;;;;;5040517;28;20068;-67
2021/07/28 09:46:30;;;;;;;7.47;6.25;;;21.10;99.90;;;;;;5039893;28;20048;-67
2021/07/28 09:48:57;;;;;;;8.75;6.25;;;21.30;99.90;;;;;;5039931;28;20068;-66
2021/07/28 09:51:26;;;;;;;11.07;5.88;;;21.40;99.90;;;;;;5042863;28;20095;-67
2021/07/28 09:53:53;;;;;;;7.38;5.45;;;21.40;99.90;;;;;;5047119;28;20353;-69
2021/07/28 09:56:37;;;;;;;8.02;4.95;;;21.60;99.90;;;;;;5046509;28;20037;-67
2021/07/28 09:59:04;;;;;;;8.10;4.80;;;21.50;99.90;;;;;;5046279;28;20067;-66
2021/07/28 10:01:32;;;;;;;6.25;5.20;;;21.50;99.90;;;;;;5043219;28;20517;-65
2021/07/28 10:03:59;;;;;;;7.03;5.07;;;21.30;99.90;;;;;;5046038;28;20048;-66
2021/07/28 10:06:31;;;;;;;8.15;5.07;;;21.30;99.90;;;;;;5038410;28;20057;-65
2021/07/28 10:08:58;;;;;;;6.30;4.97;;;21.20;99.90;;;;;;5040570;28;20713;-65
2021/07/28 10:11:24;;;;;;;8.10;5.57;;;21.60;99.90;;;;;;5042428;28;20101;-66
2021/07/28 10:13:54;;;;;;;6.00;4.82;;;21.80;99.90;;;;;;5040774;28;20045;-65
2021/07/28 10:16:19;;;;;;;6.82;4.88;;;21.90;99.90;;;;;;5050421;28;20049;-66
2021/07/28 10:18:47;;;;;;;11.95;4.45;;;22.00;99.90;;;;;;5047124;28;20106;-66
2021/07/28 10:21:13;;;;;;;;;;;22.10;99.90;;;;;;5035976;28;20064;-65
2021/07/28 10:23:42;;;;;;;6.57;4.45;;;22.30;99.90;;;;;;5043358;28;19921;-65
2021/07/28 10:26:11;;;;;;;9.80;4.78;;;22.70;99.90;;;;;;5054369;28;20091;-66
2021/07/28 10:28:37;;;;;;;5.88;4.82;;;22.80;99.90;;;;;;5038449;28;20045;-65
2021/07/28 10:31:20;;;;;;;7.82;4.60;;;23.10;99.90;;;;;;5038514;28;20049;-64
2021/07/28 10:33:55;;;;;;;6.38;5.07;;;23.10;99.90;;;;;;5041809;28;20052;-65
2021/07/28 10:36:42;;;;;;;11.32;4.32;;;22.90;99.90;;;;;;5040344;28;20053;-65
2021/07/28 10:39:08;;;;;;;7.43;5.20;;;22.60;99.90;;;;;;5041269;28;20033;-65
2021/07/28 10:41:38;;;;;;;8.13;5.53;;;22.20;99.90;;;;;;5039346;28;20052;-65
2021/07/28 10:44:14;;;;;;;7.70;5.38;;;22.00;99.90;;;;;;5037105;28;20073;-65
2021/07/28 10:46:52;;;;;;;6.18;4.90;;;21.90;99.90;;;;;;5036279;28;20053;-65
2021/07/28 10:49:34;;;;;;;;;;;22.00;99.90;;;;;;5035144;28;20052;-65
2021/07/28 10:51:59;;;;;;;9.30;5.88;;;21.90;99.90;;;;;;5038053;28;20395;-64
2021/07/28 10:54:48;;;;;;;8.63;5.18;;;22.00;99.90;;;;;;5041578;28;20056;-64
2021/07/28 10:57:32;;;;;;;8.07;5.93;;;21.80;99.90;;;;;;5042934;28;20463;-65
2021/07/28 10:59:58;;;;;;;6.90;5.40;;;21.40;99.90;;;;;;5036184;28;20045;-64
2021/07/28 11:02:24;;;;;;;10.18;6.47;;;21.00;99.90;;;;;;5035159;28;20070;-64
2021/07/28 11:05:20;;;;;;;9.02;6.05;;;20.70;99.90;;;;;;5028677;28;20057;-64
2021/07/28 11:08:12;;;;;;;6.95;5.75;;;20.70;99.90;;;;;;5021389;28;20049;-64
2021/07/28 11:10:54;;;;;;;9.57;5.95;;;21.10;99.90;;;;;;5031864;28;20050;-64
2021/07/28 11:13:26;;;;;;;7.60;6.70;;;21.40;99.90;;;;;;5028835;28;20100;-64
2021/07/28 11:15:57;;;;;;;8.05;6.78;;;21.70;99.90;;;;;;5033111;28;20041;-63
2021/07/28 11:18:41;;;;;;;9.00;6.38;;;21.90;99.90;;;;;;5036793;28;20045;-64
2021/07/28 11:21:20;;;;;;;7.75;5.55;;;21.90;99.90;;;;;;5041907;28;20129;-64
2021/07/28 11:23:48;;;;;;;7.13;5.68;;;21.90;99.90;;;;;;5039713;28;20046;-64
2021/07/28 11:28:59;;;;;;;12.82;5.65;;;21.90;99.90;;;;;;5093294;27;20447;-63
2021/07/28 11:31:31;;;;;;;7.30;4.82;;;21.70;99.90;;;;;;5081929;28;20037;-63
2021/07/28 11:34:13;;;;;;;7.30;4.10;;;21.70;99.90;;;;;;5079782;28;20044;-62
2021/07/28 11:36:41;;;;;;;6.18;3.42;;;22.00;99.90;;;;;;5080660;28;20343;-62
2021/07/28 11:39:09;;;;;;;4.65;3.40;;;22.00;99.90;;;;;;5076229;28;20504;-63
2021/07/28 11:41:35;;;;;;;5.40;3.03;;;22.10;99.90;;;;;;5076554;28;20526;-64
2021/07/28 11:44:01;;;;;;;6.72;3.45;;;22.00;99.90;;;;;;5079094;28;20037;-65
2021/07/28 11:46:26;;;;;;;7.90;3.63;;;22.10;99.90;;;;;;5077459;28;20108;-66
2021/07/28 11:48:57;;;;;;;6.55;3.38;;;21.80;99.90;;;;;;5073927;28;20049;-65
2021/07/28 11:51:35;;;;;;;4.03;2.85;;;21.80;99.90;;;;;;5077349;28;20045;-67
2021/07/28 11:54:11;;;;;;;7.15;3.17;;;21.30;99.90;;;;;;5077947;28;20060;-66
2021/07/28 11:56:43;;;;;;;9.85;3.50;;;21.10;99.90;;;;;;5078941;28;20048;-66
2021/07/28 11:59:10;;;;;;;5.63;3.28;;;21.10;99.90;;;;;;5078717;28;20052;-65
2021/07/28 12:01:36;;;;;;;5.55;3.90;;;20.80;99.90;;;;;;5080451;28;20036;-65
2021/07/28 12:04:05;;;;;;;7.90;3.80;;;20.80;99.90;;;;;;5077849;28;20574;-66
2021/07/28 12:06:51;;;;;;;6.85;4.25;;;21.10;99.90;;;;;;5075008;28;20049;-66
2021/07/28 12:09:20;;;;;;;10.20;4.90;;;21.30;99.90;;;;;;5086178;28;20051;-65
2021/07/28 12:11:51;;;;;;;8.10;3.78;;;21.60;99.90;;;;;;5080783;28;20495;-66
2021/07/28 12:14:26;;;;;;;6.68;3.88;;;21.90;99.90;;;;;;5079549;28;20037;-66
2021/07/28 12:16:58;;;;;;;7.07;4.00;;;22.00;99.90;;;;;;5079083;28;20124;-65
2021/07/28 12:19:31;;;;;;;5.47;4.28;;;21.80;99.90;;;;;;5078924;28;20045;-66
2021/07/28 12:22:10;;;;;;;5.68;4.35;;;21.70;99.90;;;;;;5073297;28;20097;-66
2021/07/28 12:24:42;;;;;;;11.65;4.97;;;21.70;99.90;;;;;;5078797;28;20438;-65
2021/07/28 12:27:29;;;;;;;9.35;5.03;;;21.60;99.90;;;;;;5079463;28;20057;-66
2021/07/28 12:30:00;;;;;;;6.40;4.45;;;21.30;99.90;;;;;;5075995;28;20067;-66
2021/07/28 12:32:36;;;;;;;5.43;4.30;;;21.30;99.90;;;;;;5080753;28;20425;-65
2021/07/28 12:35:07;;;;;;;6.57;4.72;;;21.70;99.90;;;;;;5080292;28;20108;-65
2021/07/28 12:37:33;;;;;;;6.07;4.30;;;21.80;99.90;;;;;;5073011;28;20514;-66
2021/07/28 12:39:59;;;;;;;8.30;4.18;;;22.00;99.90;;;;;;5063616;28;20071;-66
2021/07/28 12:42:25;;;;;;;7.22;4.32;;;22.20;99.90;;;;;;5066133;28;20064;-66
2021/07/28 12:44:51;;;;;;;8.77;4.03;;;22.10;99.90;;;;;;5063550;28;20044;-67
2021/07/28 12:47:18;;;;;;;10.30;4.13;;;22.10;99.90;;;;;;5063428;28;20076;-67
2021/07/28 12:49:44;;;;;;;7.45;3.95;;;22.00;99.90;;;;;;5069285;28;20053;-66